sensor_id;sensor_type;location;lat;lon;timestamp;P1;durP1;ratioP1;P2;durP2;ratioP2
3066;SDS011;1544;48.834;9.194;2024-03-02T00:01:43;16.17;;;12.00;;
3066;SDS011;1544;48.834;9.194;2024-03-02T00:04:19;15.80;;;11.80;;
3066;SDS011;1544;48.834;9.194;2024-03-02T00:06:55;16.17;;;11.70;;
3066;SDS011;1544;48.834;9.194;2024-03-02T00:09:31;15.53;;;11.20;;
3066;SDS011;1544;48.834;9.194;2024-03-02T00:12:10;19.50;;;11.87;;
3066;SDS011;1544;48.834;9.194;2024-03-02T00:14:51;15.50;;;11.23;;
3066;SDS011;1544;48.834;9.194;2024-03-02T00:17:27;15.00;;;9.40;;
3066;SDS011;1544;48.834;9.194;2024-03-02T00:20:03;12.97;;;9.53;;
3066;SDS011;1544;48.834;9.194;2024-03-02T00:22:40;13.43;;;9.23;;
3066;SDS011;1544;48.834;9.194;2024-03-02T00:25:16;12.73;;;9.27;;
3066;SDS011;1544;48.834;9.194;2024-03-02T00:27:52;10.97;;;9.47;;
3066;SDS011;1544;48.834;9.194;2024-03-02T00:30:43;14.10;;;9.90;;
3066;SDS011;1544;48.834;9.194;2024-03-02T00:33:41;14.43;;;9.73;;
3066;SDS011;1544;48.834;9.194;2024-03-02T00:36:24;12.23;;;9.63;;
3066;SDS011;1544;48.834;9.194;2024-03-02T00:39:04;10.23;;;9.13;;
3066;SDS011;1544;48.834;9.194;2024-03-02T00:41:43;11.60;;;9.20;;
3066;SDS011;1544;48.834;9.194;2024-03-02T00:44:19;12.37;;;9.67;;
3066;SDS011;1544;48.834;9.194;2024-03-02T00:47:01;13.17;;;10.00;;
3066;SDS011;1544;48.834;9.194;2024-03-02T00:49:38;14.97;;;11.00;;
3066;SDS011;1544;48.834;9.194;2024-03-02T00:52:16;10.83;;;8.60;;
3066;SDS011;1544;48.834;9.194;2024-03-02T00:54:52;13.33;;;9.97;;
3066;SDS011;1544;48.834;9.194;2024-03-02T00:57:32;13.83;;;10.47;;
3066;SDS011;1544;48.834;9.194;2024-03-02T01:00:10;14.77;;;10.77;;
3066;SDS011;1544;48.834;9.194;2024-03-02T01:02:50;15.53;;;10.90;;
3066;SDS011;1544;48.834;9.194;2024-03-02T01:05:26;16.50;;;10.87;;
3066;SDS011;1544;48.834;9.194;2024-03-02T01:08:03;19.20;;;11.30;;
3066;SDS011;1544;48.834;9.194;2024-03-02T01:10:39;14.20;;;10.00;;
3066;SDS011;1544;48.834;9.194;2024-03-02T01:13:15;17.80;;;12.20;;
3066;SDS011;1544;48.834;9.194;2024-03-02T01:15:51;15.40;;;11.00;;
3066;SDS011;1544;48.834;9.194;2024-03-02T01:18:28;11.63;;;9.83;;
3066;SDS011;1544;48.834;9.194;2024-03-02T01:21:04;14.77;;;11.13;;
3066;SDS011;1544;48.834;9.194;2024-03-02T01:23:40;13.47;;;10.40;;
3066;SDS011;1544;48.834;9.194;2024-03-02T01:26:16;16.40;;;11.30;;
3066;SDS011;1544;48.834;9.194;2024-03-02T01:28:52;15.83;;;10.70;;
3066;SDS011;1544;48.834;9.194;2024-03-02T01:31:28;18.00;;;10.30;;
3066;SDS011;1544;48.834;9.194;2024-03-02T01:34:04;15.53;;;11.67;;
3066;SDS011;1544;48.834;9.194;2024-03-02T01:36:40;15.87;;;11.37;;
3066;SDS011;1544;48.834;9.194;2024-03-02T01:39:16;14.53;;;10.63;;
3066;SDS011;1544;48.834;9.194;2024-03-02T01:41:52;16.17;;;10.90;;
3066;SDS011;1544;48.834;9.194;2024-03-02T01:44:28;11.83;;;9.30;;
3066;SDS011;1544;48.834;9.194;2024-03-02T01:47:04;16.43;;;10.97;;
3066;SDS011;1544;48.834;9.194;2024-03-02T01:49:40;18.03;;;11.60;;
3066;SDS011;1544;48.834;9.194;2024-03-02T01:52:16;17.00;;;11.77;;
3066;SDS011;1544;48.834;9.194;2024-03-02T01:54:52;14.57;;;10.13;;
3066;SDS011;1544;48.834;9.194;2024-03-02T01:57:29;13.23;;;10.07;;
3066;SDS011;1544;48.834;9.194;2024-03-02T02:00:05;14.27;;;10.67;;
3066;SDS011;1544;48.834;9.194;2024-03-02T02:02:46;12.80;;;9.00;;
3066;SDS011;1544;48.834;9.194;2024-03-02T02:05:23;13.67;;;10.20;;
3066;SDS011;1544;48.834;9.194;2024-03-02T02:07:59;14.50;;;11.43;;
3066;SDS011;1544;48.834;9.194;2024-03-02T02:10:36;14.83;;;11.30;;
3066;SDS011;1544;48.834;9.194;2024-03-02T02:13:12;17.20;;;11.93;;
3066;SDS011;1544;48.834;9.194;2024-03-02T02:15:48;16.00;;;10.80;;
3066;SDS011;1544;48.834;9.194;2024-03-02T02:18:24;16.43;;;9.97;;
3066;SDS011;1544;48.834;9.194;2024-03-02T02:21:00;16.00;;;11.50;;
3066;SDS011;1544;48.834;9.194;2024-03-02T02:23:37;16.67;;;10.80;;
3066;SDS011;1544;48.834;9.194;2024-03-02T02:26:13;12.67;;;9.20;;
3066;SDS011;1544;48.834;9.194;2024-03-02T02:28:49;16.97;;;11.90;;
3066;SDS011;1544;48.834;9.194;2024-03-02T02:31:25;13.57;;;10.10;;
3066;SDS011;1544;48.834;9.194;2024-03-02T02:34:01;15.43;;;11.00;;
3066;SDS011;1544;48.834;9.194;2024-03-02T02:36:37;15.67;;;11.03;;
3066;SDS011;1544;48.834;9.194;2024-03-02T02:39:17;16.50;;;10.97;;
3066;SDS011;1544;48.834;9.194;2024-03-02T02:41:56;14.77;;;10.27;;
3066;SDS011;1544;48.834;9.194;2024-03-02T02:44:33;15.17;;;10.60;;
3066;SDS011;1544;48.834;9.194;2024-03-02T02:47:09;17.73;;;11.60;;
3066;SDS011;1544;48.834;9.194;2024-03-02T02:49:45;17.97;;;11.37;;
3066;SDS011;1544;48.834;9.194;2024-03-02T02:52:21;16.20;;;12.47;;
3066;SDS011;1544;48.834;9.194;2024-03-02T02:54:57;16.80;;;12.17;;
3066;SDS011;1544;48.834;9.194;2024-03-02T02:57:33;19.07;;;12.70;;
3066;SDS011;1544;48.834;9.194;2024-03-02T03:00:12;18.17;;;11.40;;
3066;SDS011;1544;48.834;9.194;2024-03-02T03:02:52;20.30;;;12.77;;
3066;SDS011;1544;48.834;9.194;2024-03-02T03:05:28;17.90;;;12.47;;
3066;SDS011;1544;48.834;9.194;2024-03-02T03:08:04;17.13;;;11.70;;
3066;SDS011;1544;48.834;9.194;2024-03-02T03:10:40;19.40;;;13.40;;
3066;SDS011;1544;48.834;9.194;2024-03-02T03:13:17;19.03;;;13.47;;
3066;SDS011;1544;48.834;9.194;2024-03-02T03:15:53;18.67;;;13.23;;
3066;SDS011;1544;48.834;9.194;2024-03-02T03:18:28;20.93;;;13.50;;
3066;SDS011;1544;48.834;9.194;2024-03-02T03:21:04;18.47;;;11.73;;
3066;SDS011;1544;48.834;9.194;2024-03-02T03:23:40;18.00;;;12.23;;
3066;SDS011;1544;48.834;9.194;2024-03-02T03:26:16;19.50;;;13.33;;
3066;SDS011;1544;48.834;9.194;2024-03-02T03:28:52;22.23;;;13.30;;
3066;SDS011;1544;48.834;9.194;2024-03-02T03:31:29;18.60;;;11.97;;
3066;SDS011;1544;48.834;9.194;2024-03-02T03:34:05;22.20;;;14.07;;
3066;SDS011;1544;48.834;9.194;2024-03-02T03:36:41;18.80;;;12.80;;
3066;SDS011;1544;48.834;9.194;2024-03-02T03:39:18;20.83;;;13.13;;
3066;SDS011;1544;48.834;9.194;2024-03-02T03:41:54;19.60;;;12.80;;
3066;SDS011;1544;48.834;9.194;2024-03-02T03:44:30;19.40;;;12.40;;
3066;SDS011;1544;48.834;9.194;2024-03-02T03:47:06;18.47;;;11.80;;
3066;SDS011;1544;48.834;9.194;2024-03-02T03:49:43;20.90;;;13.17;;
3066;SDS011;1544;48.834;9.194;2024-03-02T03:52:19;23.80;;;12.80;;
3066;SDS011;1544;48.834;9.194;2024-03-02T03:54:56;20.23;;;12.00;;
3066;SDS011;1544;48.834;9.194;2024-03-02T03:57:32;16.83;;;12.50;;
3066;SDS011;1544;48.834;9.194;2024-03-02T04:00:08;17.37;;;12.00;;
3066;SDS011;1544;48.834;9.194;2024-03-02T04:02:48;20.47;;;12.10;;
3066;SDS011;1544;48.834;9.194;2024-03-02T04:05:24;18.97;;;11.87;;
3066;SDS011;1544;48.834;9.194;2024-03-02T04:08:00;22.87;;;12.40;;
3066;SDS011;1544;48.834;9.194;2024-03-02T04:10:36;20.80;;;11.30;;
3066;SDS011;1544;48.834;9.194;2024-03-02T04:13:12;16.13;;;11.33;;
3066;SDS011;1544;48.834;9.194;2024-03-02T04:15:48;18.90;;;13.10;;
3066;SDS011;1544;48.834;9.194;2024-03-02T04:18:24;17.43;;;11.27;;
3066;SDS011;1544;48.834;9.194;2024-03-02T04:21:00;15.30;;;10.93;;
3066;SDS011;1544;48.834;9.194;2024-03-02T04:23:36;17.03;;;11.00;;
3066;SDS011;1544;48.834;9.194;2024-03-02T04:26:12;15.50;;;10.07;;
3066;SDS011;1544;48.834;9.194;2024-03-02T04:28:48;18.00;;;12.30;;
3066;SDS011;1544;48.834;9.194;2024-03-02T04:31:24;19.20;;;11.60;;
3066;SDS011;1544;48.834;9.194;2024-03-02T04:33:59;18.40;;;12.37;;
3066;SDS011;1544;48.834;9.194;2024-03-02T04:36:36;20.67;;;12.90;;
3066;SDS011;1544;48.834;9.194;2024-03-02T04:39:12;21.77;;;13.53;;
3066;SDS011;1544;48.834;9.194;2024-03-02T04:41:47;20.33;;;11.93;;
3066;SDS011;1544;48.834;9.194;2024-03-02T04:44:23;19.37;;;12.97;;
3066;SDS011;1544;48.834;9.194;2024-03-02T04:46:59;18.17;;;12.23;;
3066;SDS011;1544;48.834;9.194;2024-03-02T04:49:35;22.13;;;12.40;;
3066;SDS011;1544;48.834;9.194;2024-03-02T04:52:11;18.73;;;13.20;;
3066;SDS011;1544;48.834;9.194;2024-03-02T04:54:47;18.20;;;11.93;;
3066;SDS011;1544;48.834;9.194;2024-03-02T04:57:42;17.73;;;11.97;;
3066;SDS011;1544;48.834;9.194;2024-03-02T05:00:18;16.73;;;12.47;;
3066;SDS011;1544;48.834;9.194;2024-03-02T05:02:55;20.07;;;12.10;;
3066;SDS011;1544;48.834;9.194;2024-03-02T05:05:30;18.90;;;12.00;;
3066;SDS011;1544;48.834;9.194;2024-03-02T05:08:06;21.10;;;12.80;;
3066;SDS011;1544;48.834;9.194;2024-03-02T05:10:42;19.23;;;12.20;;
3066;SDS011;1544;48.834;9.194;2024-03-02T05:13:18;18.73;;;11.93;;
3066;SDS011;1544;48.834;9.194;2024-03-02T05:15:56;21.40;;;12.07;;
3066;SDS011;1544;48.834;9.194;2024-03-02T05:18:32;18.93;;;12.13;;
3066;SDS011;1544;48.834;9.194;2024-03-02T05:21:08;17.93;;;12.47;;
3066;SDS011;1544;48.834;9.194;2024-03-02T05:23:44;18.30;;;13.00;;
3066;SDS011;1544;48.834;9.194;2024-03-02T05:26:20;19.53;;;12.57;;
3066;SDS011;1544;48.834;9.194;2024-03-02T05:28:56;22.07;;;13.13;;
3066;SDS011;1544;48.834;9.194;2024-03-02T05:31:32;19.73;;;12.67;;
3066;SDS011;1544;48.834;9.194;2024-03-02T05:34:07;20.53;;;13.40;;
3066;SDS011;1544;48.834;9.194;2024-03-02T05:36:44;29.93;;;13.97;;
3066;SDS011;1544;48.834;9.194;2024-03-02T05:39:19;19.93;;;12.17;;
3066;SDS011;1544;48.834;9.194;2024-03-02T05:41:56;23.37;;;13.63;;
3066;SDS011;1544;48.834;9.194;2024-03-02T05:44:32;21.63;;;13.17;;
3066;SDS011;1544;48.834;9.194;2024-03-02T05:47:07;19.50;;;11.80;;
3066;SDS011;1544;48.834;9.194;2024-03-02T05:49:44;21.23;;;12.50;;
3066;SDS011;1544;48.834;9.194;2024-03-02T05:52:20;19.83;;;12.87;;
3066;SDS011;1544;48.834;9.194;2024-03-02T05:54:56;19.10;;;13.50;;
3066;SDS011;1544;48.834;9.194;2024-03-02T05:57:32;17.30;;;10.87;;
3066;SDS011;1544;48.834;9.194;2024-03-02T06:00:28;18.60;;;12.03;;
3066;SDS011;1544;48.834;9.194;2024-03-02T06:03:06;18.63;;;11.97;;
3066;SDS011;1544;48.834;9.194;2024-03-02T06:05:44;22.60;;;12.23;;
3066;SDS011;1544;48.834;9.194;2024-03-02T06:08:20;18.13;;;12.30;;
3066;SDS011;1544;48.834;9.194;2024-03-02T06:10:56;20.20;;;11.50;;
3066;SDS011;1544;48.834;9.194;2024-03-02T06:13:32;20.13;;;12.37;;
3066;SDS011;1544;48.834;9.194;2024-03-02T06:16:08;18.20;;;11.00;;
3066;SDS011;1544;48.834;9.194;2024-03-02T06:18:44;19.80;;;11.90;;
3066;SDS011;1544;48.834;9.194;2024-03-02T06:21:20;20.20;;;12.60;;
3066;SDS011;1544;48.834;9.194;2024-03-02T06:23:56;17.40;;;11.00;;
3066;SDS011;1544;48.834;9.194;2024-03-02T06:26:32;20.50;;;12.83;;
3066;SDS011;1544;48.834;9.194;2024-03-02T06:29:08;19.73;;;11.70;;
3066;SDS011;1544;48.834;9.194;2024-03-02T06:31:44;17.13;;;11.77;;
3066;SDS011;1544;48.834;9.194;2024-03-02T06:34:20;18.90;;;11.80;;
3066;SDS011;1544;48.834;9.194;2024-03-02T06:36:56;20.27;;;12.47;;
3066;SDS011;1544;48.834;9.194;2024-03-02T06:39:32;16.23;;;11.70;;
3066;SDS011;1544;48.834;9.194;2024-03-02T06:42:09;16.07;;;10.90;;
3066;SDS011;1544;48.834;9.194;2024-03-02T06:44:45;24.13;;;11.80;;
3066;SDS011;1544;48.834;9.194;2024-03-02T06:47:21;19.90;;;12.40;;
3066;SDS011;1544;48.834;9.194;2024-03-02T06:49:57;19.80;;;12.30;;
3066;SDS011;1544;48.834;9.194;2024-03-02T06:52:34;18.37;;;11.27;;
3066;SDS011;1544;48.834;9.194;2024-03-02T06:55:10;16.57;;;10.63;;
3066;SDS011;1544;48.834;9.194;2024-03-02T06:57:46;16.93;;;11.07;;
3066;SDS011;1544;48.834;9.194;2024-03-02T07:00:24;16.90;;;11.50;;
3066;SDS011;1544;48.834;9.194;2024-03-02T07:03:01;16.37;;;11.60;;
3066;SDS011;1544;48.834;9.194;2024-03-02T07:05:37;15.07;;;11.23;;
3066;SDS011;1544;48.834;9.194;2024-03-02T07:08:13;15.80;;;11.27;;
3066;SDS011;1544;48.834;9.194;2024-03-02T07:10:49;19.50;;;12.87;;
3066;SDS011;1544;48.834;9.194;2024-03-02T07:13:25;17.27;;;11.33;;
3066;SDS011;1544;48.834;9.194;2024-03-02T07:16:02;17.73;;;12.20;;
3066;SDS011;1544;48.834;9.194;2024-03-02T07:18:38;19.87;;;11.53;;
3066;SDS011;1544;48.834;9.194;2024-03-02T07:21:17;21.20;;;14.07;;
3066;SDS011;1544;48.834;9.194;2024-03-02T07:23:54;16.47;;;11.23;;
3066;SDS011;1544;48.834;9.194;2024-03-02T07:26:30;17.37;;;11.87;;
3066;SDS011;1544;48.834;9.194;2024-03-02T07:29:10;16.47;;;10.90;;
3066;SDS011;1544;48.834;9.194;2024-03-02T07:31:46;17.53;;;11.77;;
3066;SDS011;1544;48.834;9.194;2024-03-02T07:34:22;17.87;;;11.83;;
3066;SDS011;1544;48.834;9.194;2024-03-02T07:36:58;15.10;;;10.80;;
3066;SDS011;1544;48.834;9.194;2024-03-02T07:39:34;16.23;;;11.67;;
3066;SDS011;1544;48.834;9.194;2024-03-02T07:42:10;20.40;;;10.87;;
3066;SDS011;1544;48.834;9.194;2024-03-02T07:44:46;15.30;;;10.13;;
3066;SDS011;1544;48.834;9.194;2024-03-02T07:47:22;16.33;;;10.80;;
3066;SDS011;1544;48.834;9.194;2024-03-02T07:49:58;15.07;;;9.63;;
3066;SDS011;1544;48.834;9.194;2024-03-02T07:52:34;14.50;;;10.03;;
3066;SDS011;1544;48.834;9.194;2024-03-02T07:55:10;12.80;;;9.27;;
3066;SDS011;1544;48.834;9.194;2024-03-02T07:57:56;14.27;;;9.50;;
3066;SDS011;1544;48.834;9.194;2024-03-02T08:00:38;17.80;;;10.77;;
3066;SDS011;1544;48.834;9.194;2024-03-02T08:03:15;12.80;;;9.17;;
3066;SDS011;1544;48.834;9.194;2024-03-02T08:05:51;15.60;;;10.17;;
3066;SDS011;1544;48.834;9.194;2024-03-02T08:08:28;11.93;;;7.80;;
3066;SDS011;1544;48.834;9.194;2024-03-02T08:11:04;10.10;;;8.03;;
3066;SDS011;1544;48.834;9.194;2024-03-02T08:13:40;12.77;;;8.57;;
3066;SDS011;1544;48.834;9.194;2024-03-02T08:16:16;11.33;;;8.50;;
3066;SDS011;1544;48.834;9.194;2024-03-02T08:18:55;12.43;;;9.33;;
3066;SDS011;1544;48.834;9.194;2024-03-02T08:21:33;12.43;;;8.97;;
3066;SDS011;1544;48.834;9.194;2024-03-02T08:24:11;12.13;;;8.00;;
3066;SDS011;1544;48.834;9.194;2024-03-02T08:26:47;10.83;;;8.10;;
3066;SDS011;1544;48.834;9.194;2024-03-02T08:29:23;8.80;;;7.20;;
3066;SDS011;1544;48.834;9.194;2024-03-02T08:31:59;11.37;;;7.83;;
3066;SDS011;1544;48.834;9.194;2024-03-02T08:34:35;11.07;;;7.50;;
3066;SDS011;1544;48.834;9.194;2024-03-02T08:37:11;11.50;;;7.67;;
3066;SDS011;1544;48.834;9.194;2024-03-02T08:39:47;9.47;;;7.80;;
3066;SDS011;1544;48.834;9.194;2024-03-02T08:42:23;10.17;;;7.20;;
3066;SDS011;1544;48.834;9.194;2024-03-02T08:44:59;9.20;;;6.90;;
3066;SDS011;1544;48.834;9.194;2024-03-02T08:47:39;10.13;;;7.00;;
3066;SDS011;1544;48.834;9.194;2024-03-02T08:50:14;8.87;;;6.40;;
3066;SDS011;1544;48.834;9.194;2024-03-02T08:52:50;11.70;;;8.07;;
3066;SDS011;1544;48.834;9.194;2024-03-02T08:55:26;8.60;;;6.10;;
3066;SDS011;1544;48.834;9.194;2024-03-02T08:58:03;9.33;;;6.10;;
3066;SDS011;1544;48.834;9.194;2024-03-02T09:00:40;10.23;;;7.33;;
3066;SDS011;1544;48.834;9.194;2024-03-02T09:03:16;10.93;;;7.63;;
3066;SDS011;1544;48.834;9.194;2024-03-02T09:05:53;6.47;;;5.70;;
3066;SDS011;1544;48.834;9.194;2024-03-02T09:08:29;8.60;;;6.50;;
3066;SDS011;1544;48.834;9.194;2024-03-02T09:11:05;8.00;;;6.10;;
3066;SDS011;1544;48.834;9.194;2024-03-02T09:13:42;7.07;;;5.93;;
3066;SDS011;1544;48.834;9.194;2024-03-02T09:16:19;6.17;;;5.57;;
3066;SDS011;1544;48.834;9.194;2024-03-02T09:18:56;6.90;;;6.03;;
3066;SDS011;1544;48.834;9.194;2024-03-02T09:21:32;5.47;;;4.97;;
3066;SDS011;1544;48.834;9.194;2024-03-02T09:24:08;5.90;;;5.10;;
3066;SDS011;1544;48.834;9.194;2024-03-02T09:26:45;5.13;;;4.63;;
3066;SDS011;1544;48.834;9.194;2024-03-02T09:29:21;6.60;;;5.93;;
3066;SDS011;1544;48.834;9.194;2024-03-02T09:31:57;7.97;;;5.60;;
3066;SDS011;1544;48.834;9.194;2024-03-02T09:34:33;6.23;;;4.90;;
3066;SDS011;1544;48.834;9.194;2024-03-02T09:37:09;6.60;;;5.47;;
3066;SDS011;1544;48.834;9.194;2024-03-02T09:39:46;6.00;;;4.77;;
3066;SDS011;1544;48.834;9.194;2024-03-02T09:42:22;7.70;;;6.23;;
3066;SDS011;1544;48.834;9.194;2024-03-02T09:44:59;5.87;;;5.10;;
3066;SDS011;1544;48.834;9.194;2024-03-02T09:47:35;5.80;;;5.20;;
3066;SDS011;1544;48.834;9.194;2024-03-02T09:50:11;5.90;;;5.17;;
3066;SDS011;1544;48.834;9.194;2024-03-02T09:52:48;5.20;;;4.70;;
3066;SDS011;1544;48.834;9.194;2024-03-02T09:55:27;5.43;;;4.93;;
3066;SDS011;1544;48.834;9.194;2024-03-02T09:58:03;5.70;;;5.00;;
3066;SDS011;1544;48.834;9.194;2024-03-02T10:00:40;6.30;;;5.17;;
3066;SDS011;1544;48.834;9.194;2024-03-02T10:03:16;5.13;;;4.60;;
3066;SDS011;1544;48.834;9.194;2024-03-02T10:05:54;5.37;;;4.87;;
3066;SDS011;1544;48.834;9.194;2024-03-02T10:08:42;5.10;;;4.40;;
3066;SDS011;1544;48.834;9.194;2024-03-02T10:11:29;5.40;;;4.00;;
3066;SDS011;1544;48.834;9.194;2024-03-02T10:14:13;4.30;;;3.53;;
3066;SDS011;1544;48.834;9.194;2024-03-02T10:16:49;3.73;;;3.43;;
3066;SDS011;1544;48.834;9.194;2024-03-02T10:19:25;3.87;;;3.37;;
3066;SDS011;1544;48.834;9.194;2024-03-02T10:22:05;4.37;;;3.93;;
3066;SDS011;1544;48.834;9.194;2024-03-02T10:24:45;3.47;;;3.10;;
3066;SDS011;1544;48.834;9.194;2024-03-02T10:27:23;4.10;;;3.30;;
3066;SDS011;1544;48.834;9.194;2024-03-02T10:30:02;3.20;;;2.90;;
3066;SDS011;1544;48.834;9.194;2024-03-02T10:32:40;3.87;;;3.57;;
3066;SDS011;1544;48.834;9.194;2024-03-02T10:35:16;4.10;;;3.70;;
3066;SDS011;1544;48.834;9.194;2024-03-02T10:37:52;3.00;;;2.70;;
3066;SDS011;1544;48.834;9.194;2024-03-02T10:40:29;3.10;;;2.80;;
3066;SDS011;1544;48.834;9.194;2024-03-02T10:43:05;6.57;;;3.40;;
3066;SDS011;1544;48.834;9.194;2024-03-02T10:45:42;5.60;;;3.50;;
3066;SDS011;1544;48.834;9.194;2024-03-02T10:48:19;4.17;;;3.77;;
3066;SDS011;1544;48.834;9.194;2024-03-02T10:50:56;4.50;;;3.73;;
3066;SDS011;1544;48.834;9.194;2024-03-02T10:53:36;3.13;;;2.63;;
3066;SDS011;1544;48.834;9.194;2024-03-02T10:56:15;3.00;;;2.70;;
3066;SDS011;1544;48.834;9.194;2024-03-02T10:59:03;2.87;;;2.67;;
3066;SDS011;1544;48.834;9.194;2024-03-02T11:01:55;3.30;;;2.97;;
3066;SDS011;1544;48.834;9.194;2024-03-02T11:04:39;3.10;;;2.90;;
3066;SDS011;1544;48.834;9.194;2024-03-02T11:07:17;2.77;;;2.57;;
3066;SDS011;1544;48.834;9.194;2024-03-02T11:09:58;3.17;;;2.97;;
3066;SDS011;1544;48.834;9.194;2024-03-02T11:12:48;2.47;;;2.27;;
3066;SDS011;1544;48.834;9.194;2024-03-02T11:15:37;2.93;;;2.73;;
3066;SDS011;1544;48.834;9.194;2024-03-02T11:18:19;2.70;;;2.50;;
3066;SDS011;1544;48.834;9.194;2024-03-02T11:20:56;2.90;;;2.70;;
3066;SDS011;1544;48.834;9.194;2024-03-02T11:23:33;2.20;;;2.10;;
3066;SDS011;1544;48.834;9.194;2024-03-02T11:26:17;2.43;;;2.17;;
3066;SDS011;1544;48.834;9.194;2024-03-02T11:28:54;2.27;;;2.07;;
3066;SDS011;1544;48.834;9.194;2024-03-02T11:32:14;2.70;;;2.50;;
3066;SDS011;1544;48.834;9.194;2024-03-02T11:34:38;2.17;;;2.03;;
3066;SDS011;1544;48.834;9.194;2024-03-02T11:37:27;1.87;;;1.60;;
3066;SDS011;1544;48.834;9.194;2024-03-02T11:40:03;2.03;;;1.83;;
3066;SDS011;1544;48.834;9.194;2024-03-02T11:42:40;1.43;;;1.33;;
3066;SDS011;1544;48.834;9.194;2024-03-02T11:45:22;1.50;;;1.40;;
3066;SDS011;1544;48.834;9.194;2024-03-02T11:47:59;1.37;;;1.27;;
3066;SDS011;1544;48.834;9.194;2024-03-02T11:50:36;0.80;;;0.80;;
3066;SDS011;1544;48.834;9.194;2024-03-02T11:53:24;1.50;;;1.30;;
3066;SDS011;1544;48.834;9.194;2024-03-02T11:56:06;1.43;;;1.00;;
3066;SDS011;1544;48.834;9.194;2024-03-02T11:58:44;1.60;;;0.80;;
3066;SDS011;1544;48.834;9.194;2024-03-02T12:01:22;2.00;;;0.90;;
3066;SDS011;1544;48.834;9.194;2024-03-02T12:03:59;0.67;;;0.63;;
3066;SDS011;1544;48.834;9.194;2024-03-02T12:06:35;0.70;;;0.70;;
3066;SDS011;1544;48.834;9.194;2024-03-02T12:09:12;0.70;;;0.70;;
3066;SDS011;1544;48.834;9.194;2024-03-02T12:12:00;0.40;;;0.40;;
3066;SDS011;1544;48.834;9.194;2024-03-02T12:14:40;0.40;;;0.40;;
3066;SDS011;1544;48.834;9.194;2024-03-02T12:17:25;0.57;;;0.50;;
3066;SDS011;1544;48.834;9.194;2024-03-02T12:20:03;1.17;;;0.60;;
3066;SDS011;1544;48.834;9.194;2024-03-02T12:22:42;0.80;;;0.50;;
3066;SDS011;1544;48.834;9.194;2024-03-02T12:25:19;0.93;;;0.40;;
3066;SDS011;1544;48.834;9.194;2024-03-02T12:27:57;0.57;;;0.50;;
3066;SDS011;1544;48.834;9.194;2024-03-02T12:30:35;0.40;;;0.40;;
3066;SDS011;1544;48.834;9.194;2024-03-02T12:33:11;0.50;;;0.40;;
3066;SDS011;1544;48.834;9.194;2024-03-02T12:35:48;0.30;;;0.30;;
3066;SDS011;1544;48.834;9.194;2024-03-02T12:38:25;0.50;;;0.50;;
3066;SDS011;1544;48.834;9.194;2024-03-02T12:41:01;0.50;;;0.40;;
3066;SDS011;1544;48.834;9.194;2024-03-02T12:43:38;0.50;;;0.50;;
3066;SDS011;1544;48.834;9.194;2024-03-02T12:46:14;0.50;;;0.50;;
3066;SDS011;1544;48.834;9.194;2024-03-02T12:48:51;0.50;;;0.50;;
3066;SDS011;1544;48.834;9.194;2024-03-02T12:51:27;0.50;;;0.50;;
3066;SDS011;1544;48.834;9.194;2024-03-02T12:54:03;0.50;;;0.50;;
3066;SDS011;1544;48.834;9.194;2024-03-02T12:56:40;0.40;;;0.40;;
3066;SDS011;1544;48.834;9.194;2024-03-02T12:59:23;1.00;;;0.50;;
3066;SDS011;1544;48.834;9.194;2024-03-02T13:02:01;0.40;;;0.40;;
3066;SDS011;1544;48.834;9.194;2024-03-02T13:04:38;0.50;;;0.50;;
3066;SDS011;1544;48.834;9.194;2024-03-02T13:07:15;0.50;;;0.50;;
3066;SDS011;1544;48.834;9.194;2024-03-02T13:09:52;0.70;;;0.70;;
3066;SDS011;1544;48.834;9.194;2024-03-02T13:12:30;0.73;;;0.70;;
3066;SDS011;1544;48.834;9.194;2024-03-02T13:15:07;0.60;;;0.60;;
3066;SDS011;1544;48.834;9.194;2024-03-02T13:17:47;0.60;;;0.60;;
3066;SDS011;1544;48.834;9.194;2024-03-02T13:20:29;0.47;;;0.47;;
3066;SDS011;1544;48.834;9.194;2024-03-02T13:23:09;0.60;;;0.60;;
3066;SDS011;1544;48.834;9.194;2024-03-02T13:25:45;0.60;;;0.60;;
3066;SDS011;1544;48.834;9.194;2024-03-02T13:28:22;1.83;;;0.70;;
3066;SDS011;1544;48.834;9.194;2024-03-02T13:30:59;0.90;;;0.90;;
3066;SDS011;1544;48.834;9.194;2024-03-02T13:33:35;0.70;;;0.70;;
3066;SDS011;1544;48.834;9.194;2024-03-02T13:36:12;2.80;;;0.70;;
3066;SDS011;1544;48.834;9.194;2024-03-02T13:38:48;0.70;;;0.70;;
3066;SDS011;1544;48.834;9.194;2024-03-02T13:41:24;0.83;;;0.80;;
3066;SDS011;1544;48.834;9.194;2024-03-02T13:43:59;0.70;;;0.70;;
3066;SDS011;1544;48.834;9.194;2024-03-02T13:46:36;0.60;;;0.60;;
3066;SDS011;1544;48.834;9.194;2024-03-02T13:49:12;0.70;;;0.70;;
3066;SDS011;1544;48.834;9.194;2024-03-02T13:51:48;0.80;;;0.60;;
3066;SDS011;1544;48.834;9.194;2024-03-02T13:54:25;0.53;;;0.53;;
3066;SDS011;1544;48.834;9.194;2024-03-02T13:57:02;0.60;;;0.60;;
3066;SDS011;1544;48.834;9.194;2024-03-02T13:59:38;0.70;;;0.70;;
3066;SDS011;1544;48.834;9.194;2024-03-02T14:02:15;0.70;;;0.70;;
3066;SDS011;1544;48.834;9.194;2024-03-02T14:04:51;0.70;;;0.70;;
3066;SDS011;1544;48.834;9.194;2024-03-02T14:07:27;0.60;;;0.60;;
3066;SDS011;1544;48.834;9.194;2024-03-02T14:10:04;0.80;;;0.60;;
3066;SDS011;1544;48.834;9.194;2024-03-02T14:12:41;0.80;;;0.80;;
3066;SDS011;1544;48.834;9.194;2024-03-02T14:15:17;0.80;;;0.80;;
3066;SDS011;1544;48.834;9.194;2024-03-02T14:17:56;0.70;;;0.70;;
3066;SDS011;1544;48.834;9.194;2024-03-02T14:20:31;1.97;;;0.80;;
3066;SDS011;1544;48.834;9.194;2024-03-02T14:23:08;0.73;;;0.73;;
3066;SDS011;1544;48.834;9.194;2024-03-02T14:25:45;0.80;;;0.80;;
3066;SDS011;1544;48.834;9.194;2024-03-02T14:28:21;0.70;;;0.70;;
3066;SDS011;1544;48.834;9.194;2024-03-02T14:31:17;0.70;;;0.70;;
3066;SDS011;1544;48.834;9.194;2024-03-02T14:33:53;0.70;;;0.70;;
3066;SDS011;1544;48.834;9.194;2024-03-02T14:36:30;0.70;;;0.70;;
3066;SDS011;1544;48.834;9.194;2024-03-02T14:39:06;1.33;;;0.60;;
3066;SDS011;1544;48.834;9.194;2024-03-02T14:41:45;3.43;;;0.80;;
3066;SDS011;1544;48.834;9.194;2024-03-02T14:44:21;0.70;;;0.70;;
3066;SDS011;1544;48.834;9.194;2024-03-02T14:46:57;0.70;;;0.70;;
3066;SDS011;1544;48.834;9.194;2024-03-02T14:49:34;0.67;;;0.67;;
3066;SDS011;1544;48.834;9.194;2024-03-02T14:52:13;1.17;;;1.07;;
3066;SDS011;1544;48.834;9.194;2024-03-02T14:54:49;0.77;;;0.77;;
3066;SDS011;1544;48.834;9.194;2024-03-02T14:57:25;0.87;;;0.87;;
3066;SDS011;1544;48.834;9.194;2024-03-02T15:00:01;1.07;;;0.70;;
3066;SDS011;1544;48.834;9.194;2024-03-02T15:02:37;0.60;;;0.60;;
3066;SDS011;1544;48.834;9.194;2024-03-02T15:05:13;0.60;;;0.60;;
3066;SDS011;1544;48.834;9.194;2024-03-02T15:07:49;1.00;;;0.70;;
3066;SDS011;1544;48.834;9.194;2024-03-02T15:10:25;0.60;;;0.60;;
3066;SDS011;1544;48.834;9.194;2024-03-02T15:13:02;0.70;;;0.70;;
3066;SDS011;1544;48.834;9.194;2024-03-02T15:15:39;1.23;;;0.70;;
3066;SDS011;1544;48.834;9.194;2024-03-02T15:18:15;0.70;;;0.70;;
3066;SDS011;1544;48.834;9.194;2024-03-02T15:20:52;1.87;;;0.73;;
3066;SDS011;1544;48.834;9.194;2024-03-02T15:23:28;0.80;;;0.80;;
3066;SDS011;1544;48.834;9.194;2024-03-02T15:26:05;0.70;;;0.70;;
3066;SDS011;1544;48.834;9.194;2024-03-02T15:28:44;0.87;;;0.60;;
3066;SDS011;1544;48.834;9.194;2024-03-02T15:31:20;0.60;;;0.60;;
3066;SDS011;1544;48.834;9.194;2024-03-02T15:33:56;0.50;;;0.50;;
3066;SDS011;1544;48.834;9.194;2024-03-02T15:36:34;0.83;;;0.80;;
3066;SDS011;1544;48.834;9.194;2024-03-02T15:39:10;1.00;;;0.90;;
3066;SDS011;1544;48.834;9.194;2024-03-02T15:41:46;0.80;;;0.80;;
3066;SDS011;1544;48.834;9.194;2024-03-02T15:44:22;1.33;;;0.90;;
3066;SDS011;1544;48.834;9.194;2024-03-02T15:46:58;0.63;;;0.60;;
3066;SDS011;1544;48.834;9.194;2024-03-02T15:49:34;0.80;;;0.80;;
3066;SDS011;1544;48.834;9.194;2024-03-02T15:52:10;1.10;;;0.90;;
3066;SDS011;1544;48.834;9.194;2024-03-02T15:54:48;0.70;;;0.70;;
3066;SDS011;1544;48.834;9.194;2024-03-02T15:57:25;1.20;;;1.10;;
3066;SDS011;1544;48.834;9.194;2024-03-02T16:00:01;0.90;;;0.90;;
3066;SDS011;1544;48.834;9.194;2024-03-02T16:02:45;0.90;;;0.90;;